createdAt,value
2023-03-20T00:00:57.509Z,0.3333333333333333
2023-03-20T00:03:57.524Z,0
2023-03-20T00:06:57.096Z,0
2023-03-20T00:09:57.376Z,0
2023-03-20T00:12:57.150Z,0
2023-03-20T00:15:57.370Z,0
2023-03-20T00:18:57.692Z,0
2023-03-20T00:21:57.468Z,0
2023-03-20T00:24:57.468Z,0.3333333333333333
2023-03-20T00:27:56.929Z,0
2023-03-20T00:30:57.825Z,0
2023-03-20T00:33:57.370Z,0
2023-03-20T00:36:56.678Z,0
2023-03-20T00:39:56.950Z,0
2023-03-20T00:42:57.329Z,0
2023-03-20T00:45:56.977Z,0.3333333333333333
2023-03-20T00:48:57.610Z,0
2023-03-20T00:51:57.074Z,0
2023-03-20T00:54:57.602Z,0
2023-03-20T00:57:56.807Z,0
2023-03-20T01:00:57.650Z,0
2023-03-20T01:03:57.165Z,0
2023-03-20T01:06:57.500Z,0.3333333333333333
2023-03-20T01:09:57.448Z,0
2023-03-20T01:13:02.942Z,0
2023-03-20T01:15:57.905Z,0.3333333333333333
2023-03-20T01:18:57.306Z,0
2023-03-20T01:21:56.999Z,0
2023-03-20T01:24:57.103Z,0
2023-03-20T01:27:57.170Z,0
2023-03-20T01:30:57.592Z,0
2023-03-20T01:33:56.623Z,0
2023-03-20T01:36:57.364Z,0
2023-03-20T01:39:57.021Z,0
2023-03-20T01:43:02.406Z,0
2023-03-20T01:45:57.799Z,0
2023-03-20T01:48:56.915Z,0
2023-03-20T01:51:57.074Z,0
2023-03-20T01:54:57.065Z,0
2023-03-20T01:57:56.972Z,0
2023-03-20T02:01:02.551Z,0
2023-03-20T02:03:57.699Z,0
2023-03-20T02:06:57.411Z,0
2023-03-20T02:09:57.634Z,0
2023-03-20T02:12:56.839Z,0
2023-03-20T02:15:56.828Z,0
2023-03-20T02:18:57.442Z,0
2023-03-20T02:21:57.293Z,0
2023-03-20T02:24:57.259Z,0
2023-03-20T02:27:57.423Z,0
2023-03-20T02:30:57.459Z,0
2023-03-20T02:33:56.966Z,0
2023-03-20T02:36:57.248Z,0
2023-03-20T02:39:57.109Z,0.3333333333333333
2023-03-20T02:42:57.302Z,0
2023-03-20T02:45:58.516Z,0
2023-03-20T02:48:57.327Z,0
2023-03-20T02:51:57.422Z,0
2023-03-20T02:54:57.177Z,0
2023-03-20T02:57:57.932Z,0
2023-03-20T03:00:57.077Z,0
2023-03-20T03:03:56.824Z,0
2023-03-20T03:06:56.889Z,0
2023-03-20T03:09:57.017Z,0
2023-03-20T03:12:57.038Z,0
2023-03-20T03:15:57.325Z,0
2023-03-20T03:18:57.202Z,0
2023-03-20T03:21:57.548Z,0
2023-03-20T03:24:57.895Z,0.3333333333333333
2023-03-20T03:27:57.346Z,0
2023-03-20T03:30:56.950Z,0
2023-03-20T03:33:56.834Z,0
2023-03-20T03:36:57.268Z,0
2023-03-20T03:39:57.540Z,0
2023-03-20T03:42:57.052Z,0.6666666666666666
2023-03-20T03:45:56.958Z,0
2023-03-20T03:48:57.212Z,0
2023-03-20T03:51:57.444Z,0.3333333333333333
2023-03-20T03:54:57.348Z,0
2023-03-20T03:57:57.480Z,0
2023-03-20T04:00:57.066Z,0
2023-03-20T04:03:58.004Z,0
2023-03-20T04:06:57.507Z,0
2023-03-20T04:09:57.413Z,0.3333333333333333
2023-03-20T04:12:57.920Z,0.3333333333333333
2023-03-20T04:15:57.123Z,0.3333333333333333
2023-03-20T04:18:57.366Z,0
2023-03-20T04:21:57.377Z,0
2023-03-20T04:24:57.740Z,0
2023-03-20T04:27:56.792Z,0.3333333333333333
2023-03-20T04:30:57.592Z,0
2023-03-20T04:33:57.281Z,0.3333333333333333
2023-03-20T04:36:57.464Z,0
2023-03-20T04:39:57.706Z,0
2023-03-20T04:42:57.164Z,0
2023-03-20T04:45:57.215Z,0.3333333333333333
2023-03-20T04:48:58.668Z,0
2023-03-20T04:51:58.398Z,0.3333333333333333
2023-03-20T04:55:00.502Z,0
2023-03-20T04:57:59.450Z,0
2023-03-20T05:00:59.831Z,0.3333333333333333
2023-03-20T05:04:00.176Z,0.3333333333333333
2023-03-20T05:06:58.245Z,1
2023-03-20T05:09:58.701Z,1
2023-03-20T05:12:58.250Z,1.6666666666666667
2023-03-20T05:15:59.858Z,2.6666666666666665
2023-03-20T05:18:58.726Z,4.333333333333333
2023-03-20T05:21:59.143Z,4.333333333333333
2023-03-20T05:24:58.095Z,6.333333333333333
2023-03-20T05:28:00.515Z,9
2023-03-20T05:30:58.440Z,12
2023-03-20T05:34:00.888Z,14.666666666666666
2023-03-20T05:36:58.951Z,18.333333333333332
2023-03-20T05:39:59.249Z,23.333333333333332
2023-03-20T05:42:56.982Z,29
2023-03-20T05:46:00.504Z,35
2023-03-20T05:49:00.029Z,36
2023-03-20T05:51:58.310Z,39
2023-03-20T05:54:58.907Z,44.333333333333336
2023-03-20T05:57:58.920Z,48
2023-03-20T06:00:59.190Z,53.333333333333336
2023-03-20T06:03:58.076Z,57.666666666666664
2023-03-20T06:06:58.503Z,58.666666666666664
2023-03-20T06:09:59.734Z,62.666666666666664
2023-03-20T06:12:57.982Z,70
2023-03-20T06:15:59.111Z,77.66666666666667
2023-03-20T06:18:59.037Z,87.66666666666667
2023-03-20T06:21:57.662Z,94.33333333333333
2023-03-20T06:24:59.418Z,98.66666666666667
2023-03-20T06:27:59.224Z,106
2023-03-20T06:30:59.228Z,114.66666666666667
2023-03-20T06:33:59.321Z,122.66666666666667
2023-03-20T06:36:58.134Z,129
2023-03-20T06:39:59.935Z,138.33333333333334
2023-03-20T06:43:00.047Z,145.33333333333334
2023-03-20T06:45:59.641Z,152.33333333333334
2023-03-20T06:48:58.092Z,162.33333333333334
2023-03-20T06:51:58.917Z,180.66666666666666
2023-03-20T06:54:58.386Z,200.33333333333334
2023-03-20T06:57:59.406Z,227
2023-03-20T07:01:00.050Z,263
2023-03-20T07:03:58.913Z,291.6666666666667
2023-03-20T07:06:58.708Z,305.3333333333333
2023-03-20T07:09:57.976Z,330.6666666666667
2023-03-20T07:12:58.115Z,368
2023-03-20T07:16:04.485Z,385.3333333333333
2023-03-20T07:18:58.240Z,390.6666666666667
2023-03-20T07:21:58.560Z,325.3333333333333
2023-03-20T07:25:02.316Z,282.3333333333333
2023-03-20T07:27:59.266Z,297
2023-03-20T07:30:59.983Z,324.3333333333333
2023-03-20T07:33:58.438Z,376.6666666666667
2023-03-20T07:36:58.797Z,431.6666666666667
2023-03-20T07:39:58.433Z,452
2023-03-20T07:42:57.407Z,503.3333333333333
2023-03-20T07:45:58.957Z,547.3333333333334
2023-03-20T07:48:59.693Z,572.3333333333334
2023-03-20T07:51:58.620Z,593
2023-03-20T07:54:58.588Z,614
2023-03-20T07:57:58.950Z,597.3333333333334
2023-03-20T08:00:59.445Z,554
2023-03-20T08:03:59.065Z,486.6666666666667
2023-03-20T08:06:58.957Z,505
2023-03-20T08:09:58.755Z,487
2023-03-20T08:12:59.434Z,442
2023-03-20T08:15:58.734Z,469
2023-03-20T08:18:57.524Z,484.3333333333333
2023-03-20T08:21:58.483Z,498.6666666666667
2023-03-20T08:24:57.833Z,525.6666666666666
2023-03-20T08:27:59.123Z,552
2023-03-20T08:30:59.018Z,684.6666666666666
2023-03-20T08:33:59.296Z,785.6666666666666
2023-03-20T08:36:59.040Z,733.3333333333334
2023-03-20T08:39:59.294Z,687.3333333333334
2023-03-20T08:42:58.333Z,701.3333333333334
2023-03-20T08:45:58.335Z,649.6666666666666
2023-03-20T08:48:57.874Z,568
2023-03-20T08:51:58.619Z,567.6666666666666
2023-03-20T08:54:59.251Z,589.6666666666666
2023-03-20T08:57:58.575Z,660.3333333333334
2023-03-20T09:00:57.859Z,689
2023-03-20T09:03:59.023Z,736
2023-03-20T09:06:59.294Z,768.6666666666666
2023-03-20T09:09:59.119Z,775.6666666666666
2023-03-20T09:12:58.510Z,780.6666666666666
2023-03-20T09:15:58.430Z,813.3333333333334
2023-03-20T09:18:59.113Z,846.3333333333334
2023-03-20T09:21:59.825Z,875.6666666666666
2023-03-20T09:24:58.715Z,913.3333333333334
2023-03-20T09:27:59.050Z,925
2023-03-20T09:30:59.670Z,935
2023-03-20T09:33:58.766Z,928.6666666666666
2023-03-20T09:36:58.297Z,932
2023-03-20T09:40:00.181Z,933.3333333333334
2023-03-20T09:42:58.641Z,934.6666666666666
2023-03-20T09:45:59.013Z,920
2023-03-20T09:48:58.470Z,869
2023-03-20T09:51:58.772Z,835.3333333333334
2023-03-20T09:54:58.157Z,800.3333333333334
2023-03-20T09:57:59.974Z,778.6666666666666
2023-03-20T10:00:58.297Z,794.6666666666666
2023-03-20T10:03:58.988Z,919.6666666666666
2023-03-20T10:07:06.022Z,942
2023-03-20T10:09:58.496Z,907.3333333333334
2023-03-20T10:12:58.541Z,925.6666666666666
2023-03-20T10:15:58.366Z,947.3333333333334
2023-03-20T10:18:59.203Z,947.6666666666666
2023-03-20T10:21:57.711Z,948.3333333333334
2023-03-20T10:24:59.657Z,923.3333333333334
2023-03-20T10:27:59.152Z,930.3333333333334
2023-03-20T10:30:59.411Z,933
2023-03-20T10:33:58.502Z,935.6666666666666
2023-03-20T10:36:58.383Z,944.6666666666666
2023-03-20T10:39:59.621Z,931.6666666666666
2023-03-20T10:42:59.672Z,886
2023-03-20T10:45:59.570Z,821.6666666666666
2023-03-20T10:48:59.019Z,804.3333333333334
2023-03-20T10:52:00.265Z,812.3333333333334
2023-03-20T10:54:58.551Z,822.3333333333334
2023-03-20T10:57:58.245Z,845.6666666666666
2023-03-20T11:00:59.545Z,912
2023-03-20T11:04:15.768Z,937.3333333333334
2023-03-20T11:06:58.777Z,937
2023-03-20T11:09:58.248Z,912.6666666666666
2023-03-20T11:12:58.533Z,833.3333333333334
2023-03-20T11:15:59.448Z,706.6666666666666
2023-03-20T11:18:58.058Z,592.3333333333334
2023-03-20T11:21:58.868Z,490.3333333333333
2023-03-20T11:24:58.138Z,438
2023-03-20T11:27:58.698Z,408
2023-03-20T11:31:04.856Z,394
2023-03-20T11:33:58.237Z,384.6666666666667
2023-03-20T11:37:09.822Z,360.6666666666667
2023-03-20T11:39:59.049Z,335.6666666666667
2023-03-20T11:43:00.473Z,337.3333333333333
2023-03-20T11:45:58.835Z,334.3333333333333
2023-03-20T11:48:58.947Z,306.3333333333333
2023-03-20T11:51:59.577Z,270.6666666666667
2023-03-20T11:54:58.559Z,291.6666666666667
2023-03-20T11:57:59.431Z,305
2023-03-20T12:00:59.652Z,287.6666666666667
2023-03-20T12:03:57.593Z,252
2023-03-20T12:06:59.237Z,212.66666666666666
2023-03-20T12:09:59.611Z,207.66666666666666
2023-03-20T12:12:57.567Z,188.33333333333334
2023-03-20T12:16:00.028Z,189.33333333333334
2023-03-20T12:19:02.611Z,223.66666666666666
2023-03-20T12:21:58.082Z,249
2023-03-20T12:24:59.151Z,283.6666666666667
2023-03-20T12:27:59.070Z,293.3333333333333
2023-03-20T12:31:00.241Z,354
2023-03-20T12:33:59.222Z,416
2023-03-20T12:36:58.479Z,469
2023-03-20T12:39:59.157Z,531
2023-03-20T12:42:59.381Z,604.6666666666666
2023-03-20T12:45:58.297Z,682
2023-03-20T12:48:59.000Z,734
2023-03-20T12:52:00.551Z,737
2023-03-20T12:54:58.910Z,725.6666666666666
2023-03-20T12:57:59.531Z,669
2023-03-20T13:00:59.410Z,620
2023-03-20T13:03:58.251Z,517.6666666666666
2023-03-20T13:06:58.599Z,410.6666666666667
2023-03-20T13:09:59.212Z,413
2023-03-20T13:12:58.804Z,438
2023-03-20T13:15:59.235Z,463.3333333333333
2023-03-20T13:18:58.705Z,446.3333333333333
2023-03-20T13:21:59.266Z,342.6666666666667
2023-03-20T13:24:58.506Z,310
2023-03-20T13:27:59.210Z,331.3333333333333
2023-03-20T13:30:59.443Z,353
2023-03-20T13:33:59.361Z,371
2023-03-20T13:37:04.418Z,397.3333333333333
2023-03-20T13:40:00.250Z,451.3333333333333
2023-03-20T13:42:58.925Z,551.6666666666666
2023-03-20T13:45:59.238Z,645.3333333333334
2023-03-20T13:48:59.257Z,662.3333333333334
2023-03-20T13:51:58.416Z,669.6666666666666
2023-03-20T13:54:59.252Z,665
2023-03-20T13:57:59.026Z,681.3333333333334
2023-03-20T14:00:58.542Z,662.6666666666666
2023-03-20T14:03:59.380Z,656.3333333333334
2023-03-20T14:06:58.389Z,619.3333333333334
2023-03-20T14:09:59.835Z,604.6666666666666
2023-03-20T14:12:58.294Z,624.3333333333334
2023-03-20T14:15:58.748Z,598.6666666666666
2023-03-20T14:19:00.253Z,543
2023-03-20T14:21:58.462Z,441.3333333333333
2023-03-20T14:24:59.525Z,340
2023-03-20T14:27:57.956Z,283
2023-03-20T14:30:58.623Z,296.3333333333333
2023-03-20T14:34:00.455Z,343.3333333333333
2023-03-20T14:36:58.766Z,390.3333333333333
2023-03-20T14:39:59.326Z,444
2023-03-20T14:42:58.739Z,507.6666666666667
2023-03-20T14:45:59.564Z,572.6666666666666
2023-03-20T14:48:58.834Z,637
2023-03-20T14:51:59.449Z,659.3333333333334
2023-03-20T14:54:57.536Z,674
2023-03-20T14:57:59.768Z,671.6666666666666
2023-03-20T15:00:59.364Z,609
2023-03-20T15:03:58.111Z,474
2023-03-20T15:06:58.897Z,361.6666666666667
2023-03-20T15:09:58.804Z,388
2023-03-20T15:12:59.738Z,425
2023-03-20T15:16:00.360Z,419
2023-03-20T15:18:58.642Z,418.6666666666667
2023-03-20T15:21:58.386Z,384.3333333333333
2023-03-20T15:24:58.590Z,337.6666666666667
2023-03-20T15:27:58.876Z,301
2023-03-20T15:30:58.889Z,316.6666666666667
2023-03-20T15:33:59.262Z,353
2023-03-20T15:36:58.920Z,384.3333333333333
2023-03-20T15:39:59.288Z,381
2023-03-20T15:42:59.095Z,377.6666666666667
2023-03-20T15:46:16.761Z,375
2023-03-20T15:48:58.032Z,361
2023-03-20T15:51:58.815Z,333.3333333333333
2023-03-20T15:54:59.374Z,320.6666666666667
2023-03-20T15:57:57.883Z,321
2023-03-20T16:00:59.865Z,307.3333333333333
2023-03-20T16:03:57.861Z,285.3333333333333
2023-03-20T16:06:58.289Z,250.33333333333334
2023-03-20T16:09:58.554Z,237.33333333333334
2023-03-20T16:12:59.704Z,245
2023-03-20T16:15:59.907Z,224.33333333333334
2023-03-20T16:18:59.394Z,204.33333333333334
2023-03-20T16:21:59.324Z,205
2023-03-20T16:24:58.616Z,195.33333333333334
2023-03-20T16:27:59.790Z,187.33333333333334
2023-03-20T16:30:58.858Z,185.33333333333334
2023-03-20T16:33:59.912Z,158.66666666666666
2023-03-20T16:37:00.000Z,115.66666666666667
2023-03-20T16:39:59.238Z,104
2023-03-20T16:42:59.113Z,103.66666666666667
2023-03-20T16:45:58.886Z,101
2023-03-20T16:48:57.994Z,96
2023-03-20T16:51:59.661Z,90
2023-03-20T16:54:59.357Z,83.33333333333333
2023-03-20T16:57:58.175Z,77.33333333333333
2023-03-20T17:00:59.545Z,70.33333333333333
2023-03-20T17:03:59.424Z,66.66666666666667
2023-03-20T17:06:59.596Z,60.333333333333336
2023-03-20T17:09:58.230Z,54.666666666666664
2023-03-20T17:12:59.960Z,47
2023-03-20T17:15:58.517Z,37.666666666666664
2023-03-20T17:18:59.655Z,30.333333333333332
2023-03-20T17:21:57.939Z,25.333333333333332
2023-03-20T17:24:59.365Z,22.333333333333332
2023-03-20T17:27:58.919Z,15.666666666666666
2023-03-20T17:30:59.161Z,12
2023-03-20T17:34:00.267Z,8.666666666666666
2023-03-20T17:37:01.023Z,7
2023-03-20T17:40:00.175Z,5
2023-03-20T17:42:59.943Z,3
2023-03-20T17:46:00.527Z,1
2023-03-20T17:48:59.851Z,1
2023-03-20T17:51:58.705Z,0.6666666666666666
2023-03-20T17:55:00.383Z,0
2023-03-20T17:58:01.318Z,0
2023-03-20T18:01:00.346Z,0
2023-03-20T18:03:59.542Z,0
2023-03-20T18:06:59.066Z,0
2023-03-20T18:10:00.751Z,0.6666666666666666
2023-03-20T18:12:59.306Z,0
2023-03-20T18:15:59.285Z,0
2023-03-20T18:19:00.114Z,0
2023-03-20T18:22:00.625Z,0
2023-03-20T18:25:00.923Z,0
2023-03-20T18:27:59.838Z,0
2023-03-20T18:30:59.603Z,0
2023-03-20T18:34:00.826Z,0
2023-03-20T18:36:58.368Z,0
2023-03-20T18:40:01.138Z,0
2023-03-20T18:43:01.247Z,0
2023-03-20T18:46:00.313Z,0
2023-03-20T18:49:00.226Z,0
2023-03-20T18:52:00.740Z,0.3333333333333333
2023-03-20T18:55:01.391Z,0
2023-03-20T18:58:00.518Z,0
2023-03-20T19:01:26.815Z,0
2023-03-20T19:04:00.376Z,0
2023-03-20T19:06:58.451Z,0
2023-03-20T19:09:58.031Z,0
2023-03-20T19:12:58.207Z,0
2023-03-20T19:15:59.810Z,0
2023-03-20T19:18:59.928Z,0
2023-03-20T19:21:58.905Z,0
2023-03-20T19:24:59.207Z,0
2023-03-20T19:27:57.983Z,0
2023-03-20T19:30:58.768Z,0
2023-03-20T19:33:59.877Z,0
2023-03-20T19:36:58.085Z,0
2023-03-20T19:39:58.502Z,0
2023-03-20T19:43:02.363Z,0
2023-03-20T19:45:59.497Z,0
2023-03-20T19:48:58.463Z,0
2023-03-20T19:51:58.913Z,0
2023-03-20T19:55:02.975Z,1
2023-03-20T19:57:58.367Z,0
2023-03-20T20:01:00.557Z,0
2023-03-20T20:03:59.515Z,0
2023-03-20T20:07:26.693Z,0
2023-03-20T20:09:58.550Z,0
2023-03-20T20:13:04.871Z,0
2023-03-20T20:15:58.756Z,0
2023-03-20T20:18:59.364Z,0
2023-03-20T20:22:24.857Z,0
2023-03-20T20:24:58.807Z,0
2023-03-20T20:27:58.172Z,0
2023-03-20T20:30:59.596Z,1
2023-03-20T20:34:51.162Z,0
2023-03-20T20:37:56.519Z,0
2023-03-20T20:39:59.571Z,0
2023-03-20T20:43:01.686Z,0
2023-03-20T20:45:59.383Z,0
2023-03-20T20:49:17.971Z,0
2023-03-20T20:51:58.995Z,0
2023-03-20T20:55:10.874Z,0
2023-03-20T20:57:59.824Z,0
2023-03-20T21:00:58.682Z,0
2023-03-20T21:03:58.368Z,0.3333333333333333
2023-03-20T21:07:09.432Z,0
2023-03-20T21:09:59.203Z,0
2023-03-20T21:12:59.986Z,0
2023-03-20T21:15:59.908Z,0
2023-03-20T21:18:58.900Z,1
2023-03-20T21:21:59.012Z,0
2023-03-20T21:25:13.338Z,0.3333333333333333
2023-03-20T21:27:59.801Z,0.3333333333333333
2023-03-20T21:31:23.541Z,0
2023-03-20T21:33:57.714Z,0
2023-03-20T21:37:00.132Z,0
2023-03-20T21:39:59.278Z,0
2023-03-20T21:42:59.607Z,0
2023-03-20T21:46:37.322Z,0
2023-03-20T21:49:57.145Z,0
2023-03-20T21:53:00.341Z,0
2023-03-20T21:56:12.682Z,0
2023-03-20T21:59:02.888Z,0
2023-03-20T22:01:52.431Z,0
2023-03-20T22:04:54.831Z,0
2023-03-20T22:07:42.643Z,0
2023-03-20T22:10:45.346Z,0
2023-03-20T22:16:48.985Z,0
2023-03-20T22:19:50.288Z,0
2023-03-20T22:23:00.347Z,0
2023-03-20T22:25:39.193Z,0
2023-03-20T22:28:41.898Z,0.6666666666666666
2023-03-20T22:34:39.532Z,0
2023-03-20T22:37:40.743Z,0
2023-03-20T22:40:45.535Z,0
2023-03-20T22:43:57.132Z,0
2023-03-20T22:46:16.807Z,0
2023-03-20T22:48:57.971Z,0.3333333333333333
2023-03-20T22:52:14.690Z,0.3333333333333333
2023-03-20T22:54:58.512Z,0
2023-03-20T22:58:06.977Z,0
2023-03-20T23:01:00.814Z,0
2023-03-20T23:03:58.703Z,0
2023-03-20T23:06:58.264Z,0
2023-03-20T23:09:59.520Z,0.3333333333333333
2023-03-20T23:12:58.378Z,0
2023-03-20T23:15:59.001Z,0
2023-03-20T23:18:59.088Z,0
2023-03-20T23:21:57.606Z,0
2023-03-20T23:25:02.829Z,0
2023-03-20T23:27:58.384Z,0
2023-03-20T23:31:09.793Z,0
2023-03-20T23:33:59.766Z,0
2023-03-20T23:36:57.597Z,0
2023-03-20T23:39:59.668Z,0
2023-03-20T23:42:58.499Z,0
2023-03-20T23:45:58.224Z,0
2023-03-20T23:48:58.858Z,0
2023-03-20T23:51:58.810Z,0
2023-03-20T23:54:59.844Z,0
2023-03-20T23:57:57.738Z,0.3333333333333333
